Time;durP1;ratioP1;P1;durP2;ratioP2;P2;SDS_P1;SDS_P2;PMS_P1;PMS_P2;Temp;Humidity;BMP_temperature;BMP_pressure;BME280_temperature;BME280_humidity;BME280_pressure;Samples;Min_cycle;Max_cycle;Signal;HPM_P1;HPM_P2
2022/10/15 00:01:42;;;;;;;8.95;4.18;;;;;;;9.17;67.56;100319.50;5086087;28;20070;-68
2022/10/15 00:04:07;;;;;;;6.82;3.60;;;;;;;9.21;68.39;100316.88;5085886;28;20028;-67
2022/10/15 00:06:33;;;;;;;6.70;4.07;;;;;;;9.24;67.54;100308.25;5101867;28;20039;-67
2022/10/15 00:08:59;;;;;;;6.18;3.58;;;;;;;9.26;67.70;100329.78;5089417;28;20343;-67
2022/10/15 00:11:26;;;;;;;4.70;3.42;;;;;;;9.21;68.49;100329.81;5096161;28;20028;-66
2022/10/15 00:13:54;;;;;;;8.40;3.90;;;;;;;9.13;68.50;100313.47;5098898;28;20089;-66
2022/10/15 00:16:22;;;;;;;4.47;3.33;;;;;;;9.17;69.40;100332.41;5084782;28;20024;-66
2022/10/15 00:18:49;;;;;;;6.20;4.15;;;;;;;9.17;69.25;100329.84;5085044;28;20040;-66
2022/10/15 00:21:17;;;;;;;5.30;3.47;;;;;;;9.09;69.67;100332.44;5102991;28;20108;-66
2022/10/15 00:23:43;;;;;;;5.90;3.60;;;;;;;9.05;70.62;100325.56;5103462;28;20316;-67
2022/10/15 00:26:11;;;;;;;6.18;3.72;;;;;;;9.09;68.98;100333.31;5096251;28;20074;-67
2022/10/15 00:28:37;;;;;;;5.13;3.75;;;;;;;9.13;68.22;100327.22;5088807;28;20407;-67
2022/10/15 00:31:06;;;;;;;8.05;4.25;;;;;;;9.01;69.29;100311.81;5105078;28;20028;-68
2022/10/15 00:33:32;;;;;;;6.90;3.53;;;;;;;9.13;69.18;100332.41;5093147;28;20036;-66
2022/10/15 00:36:04;;;;;;;8.10;4.22;;;;;;;8.90;68.24;100308.44;5104978;28;20036;-67
2022/10/15 00:38:30;;;;;;;10.18;3.85;;;;;;;8.99;67.93;100329.03;5092647;28;20371;-67
2022/10/15 00:40:56;;;;;;;5.85;3.53;;;;;;;9.02;67.91;100323.88;5090978;28;20043;-67
2022/10/15 00:43:46;;;;;;;4.82;3.63;;;;;;;9.09;68.55;100315.22;5102667;28;20045;-66
2022/10/15 00:46:24;;;;;;;4.18;3.42;;;;;;;9.05;68.18;100336.78;5084999;28;20242;-68
2022/10/15 00:49:04;;;;;;;6.60;3.58;;;;;;;8.98;67.43;100317.00;5104525;28;20036;-67
2022/10/15 00:51:39;;;;;;;6.03;3.75;;;;;;;8.94;67.61;100307.53;5083341;28;20305;-68
2022/10/15 00:54:04;;;;;;;6.72;3.30;;;;;;;9.12;67.78;100325.53;5084229;28;20371;-68
2022/10/15 00:56:32;;;;;;;5.03;3.60;;;;;;;9.02;67.59;100313.53;5094141;28;20020;-69
2022/10/15 00:58:58;;;;;;;6.80;3.60;;;;;;;9.03;67.92;100320.41;5097237;28;20020;-68
2022/10/15 01:01:24;;;;;;;7.53;4.10;;;;;;;9.06;67.74;100322.97;5085973;28;20091;-68
2022/10/15 01:03:54;;;;;;;11.43;4.22;;;;;;;9.04;68.23;100332.47;5104200;28;20253;-67
2022/10/15 01:06:20;;;;;;;5.13;3.38;;;;;;;9.03;67.90;100335.91;5085464;28;20091;-68
2022/10/15 01:08:46;;;;;;;7.55;3.40;;;;;;;9.09;67.58;100333.31;5083722;28;20033;-67
2022/10/15 01:11:29;;;;;;;6.15;3.85;;;;;;;9.12;68.08;100333.28;5092797;28;20096;-67
2022/10/15 01:14:07;;;;;;;7.35;3.78;;;;;;;9.10;67.71;100339.34;5097542;28;20028;-67
2022/10/15 01:17:06;;;;;;;6.55;4.20;;;;;;;9.03;67.90;100328.16;5086801;28;20091;-66
2022/10/15 01:19:53;;;;;;;8.60;3.70;;;;;;;9.05;68.39;100334.19;5100837;28;20039;-67
2022/10/15 01:22:39;;;;;;;5.05;3.40;;;;;;;9.09;67.33;100328.16;5086204;28;20373;-68
2022/10/15 01:25:14;;;;;;;7.97;4.50;;;;;;;9.03;68.55;100335.91;5084377;28;20043;-67
2022/10/15 01:27:51;;;;;;;6.53;3.70;;;;;;;9.07;68.09;100337.63;5084108;28;20103;-67
2022/10/15 01:30:24;;;;;;;5.70;3.83;;;;;;;8.91;67.89;100321.31;5083493;28;20030;-67
2022/10/15 01:32:59;;;;;;;3.75;3.30;;;;;;;8.96;66.68;100336.81;5086915;28;20049;-67
2022/10/15 01:35:41;;;;;;;8.70;3.80;;;;;;;9.05;68.10;100335.91;5103554;28;20085;-67
2022/10/15 01:38:18;;;;;;;5.68;3.60;;;;;;;9.05;67.14;100333.31;5095986;28;20028;-67
2022/10/15 01:40:49;;;;;;;7.85;3.80;;;;;;;8.93;66.81;100329.06;5087861;28;20309;-67
2022/10/15 01:43:23;;;;;;;5.93;3.72;;;;;;;8.92;67.42;100328.22;5103759;28;20288;-68
2022/10/15 01:45:55;;;;;;;5.00;3.78;;;;;;;8.87;67.10;100329.94;5104151;28;20040;-67
2022/10/15 01:48:23;;;;;;;7.93;3.83;;;;;;;8.89;66.59;100340.28;5086471;28;20028;-67
2022/10/15 01:50:54;;;;;;;6.90;3.95;;;;;;;8.97;67.83;100338.53;5098320;28;20035;-67
2022/10/15 01:53:25;;;;;;;4.90;3.70;;;;;;;8.98;67.49;100348.84;5094212;28;20219;-66
2022/10/15 01:55:56;;;;;;;7.15;3.90;;;;;;;8.91;66.66;100334.25;5083534;28;20024;-66
2022/10/15 01:58:24;;;;;;;7.45;3.55;;;;;;;8.89;67.72;100335.09;5084581;28;20206;-67
2022/10/15 02:00:53;;;;;;;8.93;4.35;;;;;;;8.91;66.72;100336.81;5095440;28;20039;-67
2022/10/15 02:03:19;;;;;;;6.60;3.97;;;;;;;9.01;66.90;100342.81;5085801;28;20024;-66
2022/10/15 02:05:51;;;;;;;6.40;3.53;;;;;;;9.08;67.87;100354.84;5090636;28;20361;-67
2022/10/15 02:08:43;;;;;;;4.22;3.67;;;;;;;9.14;67.18;100351.38;5092626;28;20063;-67
2022/10/15 02:11:14;;;;;;;5.88;3.90;;;;;;;8.92;66.99;100330.81;5094626;28;20028;-66
2022/10/15 02:13:46;;;;;;;11.47;4.53;;;;;;;9.04;67.92;100347.97;5097268;28;20412;-66
2022/10/15 02:16:23;;;;;;;7.25;4.30;;;;;;;8.96;66.91;100339.38;5082985;28;20084;-66
2022/10/15 02:18:55;;;;;;;7.43;3.70;;;;;;;9.08;68.60;100352.25;5082949;28;20037;-65
2022/10/15 02:21:42;;;;;;;5.10;3.83;;;;;;;8.92;68.08;100337.69;5100972;28;20208;-65
2022/10/15 02:24:13;;;;;;;6.50;3.75;;;;;;;9.02;67.57;100351.41;5100788;28;20039;-67
2022/10/15 02:26:41;;;;;;;4.53;3.80;;;;;;;8.98;67.49;100355.75;5091458;28;20028;-67
2022/10/15 02:29:11;;;;;;;7.68;4.60;;;;;;;8.93;68.26;100354.91;5090390;28;20036;-67
2022/10/15 02:31:40;;;;;;;5.93;4.30;;;;;;;8.86;67.36;100348.03;5100042;28;20024;-67
2022/10/15 02:34:10;;;;;;;9.63;4.55;;;;;;;8.95;68.13;100354.03;5084908;28;20040;-66
2022/10/15 02:36:39;;;;;;;5.15;3.85;;;;;;;8.95;68.41;100359.19;5083133;28;20032;-67
2022/10/15 02:39:08;;;;;;;6.95;4.55;;;;;;;8.92;68.27;100360.91;5087240;28;20036;-67
2022/10/15 02:41:35;;;;;;;7.20;4.18;;;;;;;8.98;67.76;100358.34;5089733;28;20107;-66
2022/10/15 02:44:04;;;;;;;9.32;4.57;;;;;;;8.91;67.07;100357.50;5091636;28;20043;-66
2022/10/15 02:46:30;;;;;;;6.53;3.90;;;;;;;9.00;67.86;100364.34;5081584;28;20096;-66
2022/10/15 02:48:56;;;;;;;6.57;4.18;;;;;;;8.97;68.09;100361.78;5091223;28;20034;-67
2022/10/15 02:51:22;;;;;;;6.55;4.05;;;;;;;9.02;66.96;100359.16;5096125;28;20028;-67
2022/10/15 02:53:47;;;;;;;7.38;4.65;;;;;;;9.04;67.64;100367.78;5092490;28;20020;-67
2022/10/15 02:56:13;;;;;;;7.20;4.28;;;;;;;9.01;68.23;100368.66;5074865;28;20021;-67
2022/10/15 02:58:38;;;;;;;7.60;4.30;;;;;;;9.03;67.05;100366.91;5090326;28;20394;-67
2022/10/15 03:01:04;;;;;;;6.32;4.30;;;;;;;9.05;67.46;100365.19;5087833;28;20040;-67
2022/10/15 03:03:30;;;;;;;7.63;4.45;;;;;;;9.09;67.16;100371.19;5093450;28;20077;-67
2022/10/15 03:05:55;;;;;;;7.10;4.35;;;;;;;9.03;67.79;100371.22;5088408;28;20272;-67
2022/10/15 03:08:21;;;;;;;8.43;4.30;;;;;;;9.08;67.03;100369.50;5095346;28;20035;-67
2022/10/15 03:10:47;;;;;;;7.55;4.78;;;;;;;9.04;67.69;100367.78;5102498;28;20220;-68
2022/10/15 03:13:13;;;;;;;7.00;4.00;;;;;;;9.01;66.95;100373.81;5086373;28;20212;-67
2022/10/15 03:15:39;;;;;;;5.28;3.97;;;;;;;9.06;67.54;100376.38;5104945;28;20035;-67
2022/10/15 03:18:05;;;;;;;7.72;4.45;;;;;;;8.92;68.14;100374.72;5091517;28;20200;-66
2022/10/15 03:20:30;;;;;;;9.77;4.25;;;;;;;8.97;66.55;100372.97;5096375;28;20028;-67
2022/10/15 03:22:56;;;;;;;5.20;3.88;;;;;;;8.99;67.45;100375.53;5099878;28;20039;-67
2022/10/15 03:25:22;;;;;;;6.15;3.80;;;;;;;9.00;67.35;100376.41;5095173;28;20040;-66
2022/10/15 03:27:47;;;;;;;6.25;3.80;;;;;;;8.94;67.49;100387.63;5095981;28;20054;-67
2022/10/15 03:30:13;;;;;;;6.00;3.97;;;;;;;8.88;67.11;100377.28;5095440;28;20036;-66
2022/10/15 03:32:39;;;;;;;5.32;3.80;;;;;;;8.90;66.44;100380.75;5094667;28;20027;-66
2022/10/15 03:35:05;;;;;;;4.97;3.75;;;;;;;8.90;65.86;100385.91;5095475;28;20042;-66
2022/10/15 03:37:31;;;;;;;7.97;3.65;;;;;;;8.79;65.98;100394.56;5096083;28;20044;-67
2022/10/15 03:39:56;;;;;;;7.82;4.00;;;;;;;8.76;66.15;100366.13;5094692;28;20028;-66
2022/10/15 03:42:22;;;;;;;10.02;4.13;;;;;;;8.88;65.58;100380.75;5093988;28;20058;-67
2022/10/15 03:44:48;;;;;;;7.07;4.15;;;;;;;8.83;65.79;100379.91;5092509;28;20043;-67
2022/10/15 03:47:13;;;;;;;4.75;3.90;;;;;;;8.84;65.97;100380.78;5092821;28;20016;-67
2022/10/15 03:49:39;;;;;;;4.90;3.75;;;;;;;8.85;65.27;100379.88;5095075;28;20063;-66
2022/10/15 03:52:04;;;;;;;7.28;4.30;;;;;;;8.77;66.62;100383.34;5095932;28;20036;-66
2022/10/15 03:54:30;;;;;;;7.88;4.47;;;;;;;8.74;66.36;100370.47;5095030;28;20023;-67
2022/10/15 03:56:56;;;;;;;7.72;3.83;;;;;;;8.91;66.81;100377.31;5096309;28;20020;-68
2022/10/15 03:59:21;;;;;;;5.88;3.72;;;;;;;8.93;66.44;100380.72;5090220;28;20095;-67
2022/10/15 04:01:47;;;;;;;10.57;4.22;;;;;;;8.88;66.64;100385.03;5092124;28;20023;-66
2022/10/15 04:04:12;;;;;;;5.95;3.72;;;;;;;8.91;66.47;100388.50;5097309;28;20040;-68
2022/10/15 04:06:39;;;;;;;5.28;4.10;;;;;;;8.90;65.59;100385.91;5094513;28;20035;-67
2022/10/15 04:09:05;;;;;;;5.35;4.03;;;;;;;8.92;66.22;100394.50;5095714;28;20032;-67
2022/10/15 04:11:31;;;;;;;6.45;4.07;;;;;;;8.96;65.56;100396.22;5079465;28;20069;-68
2022/10/15 04:13:56;;;;;;;10.10;4.60;;;;;;;8.95;66.52;100387.63;5093721;28;20320;-66
2022/10/15 04:16:22;;;;;;;6.07;4.15;;;;;;;8.92;65.41;100397.97;5093435;28;20059;-66
2022/10/15 04:18:48;;;;;;;5.38;3.80;;;;;;;9.00;65.38;100392.75;5095412;28;20028;-66
2022/10/15 04:21:13;;;;;;;4.57;3.83;;;;;;;8.94;65.04;100387.63;5094762;28;20046;-66
2022/10/15 04:23:39;;;;;;;6.35;4.22;;;;;;;9.01;66.29;100394.50;5096639;28;20050;-66
2022/10/15 04:26:05;;;;;;;7.60;3.88;;;;;;;9.00;65.67;100400.50;5096747;28;20020;-66
2022/10/15 04:28:32;;;;;;;6.78;3.88;;;;;;;8.98;65.89;100391.91;5094044;28;20075;-67
2022/10/15 04:30:59;;;;;;;6.75;3.67;;;;;;;9.02;66.04;100391.06;5096634;28;20038;-66
2022/10/15 04:33:25;;;;;;;5.43;4.22;;;;;;;9.02;65.62;100387.59;5076520;28;20017;-67
2022/10/15 04:36:07;;;;;;;4.57;3.88;;;;;;;9.06;65.63;100392.72;5093528;28;20063;-67
2022/10/15 04:38:32;;;;;;;;;;;;;;;9.02;65.54;100393.63;5094041;28;20047;-67
2022/10/15 04:41:07;;;;;;;3.95;3.40;;;;;;;8.98;65.17;100379.00;5093456;28;19903;-67
2022/10/15 04:43:33;;;;;;;7.82;4.22;;;;;;;9.09;65.30;100407.38;5093336;28;20023;-66
2022/10/15 04:45:59;;;;;;;7.53;4.13;;;;;;;9.08;65.75;100395.34;5093726;28;20189;-66
2022/10/15 04:48:30;;;;;;;5.85;4.10;;;;;;;9.09;66.14;100403.09;5095384;28;20027;-67
2022/10/15 04:51:12;;;;;;;8.30;5.10;;;;;;;8.98;66.33;100389.34;5092620;28;20024;-66
2022/10/15 04:53:37;;;;;;;6.20;4.30;;;;;;;9.00;65.38;100405.69;5095967;28;20028;-66
2022/10/15 04:56:06;;;;;;;7.45;4.15;;;;;;;9.04;66.11;100411.72;5091925;28;20241;-66
2022/10/15 04:58:32;;;;;;;8.38;4.30;;;;;;;9.03;65.13;100412.56;5090819;28;20024;-66
2022/10/15 05:01:07;;;;;;;6.30;4.05;;;;;;;8.85;65.05;100400.56;5084459;28;20033;-68
2022/10/15 05:03:34;;;;;;;6.93;4.45;;;;;;;8.91;64.53;100387.66;5097361;28;20066;-69
2022/10/15 05:06:05;;;;;;;5.25;3.70;;;;;;;8.98;64.32;100397.94;5092670;28;20032;-69
2022/10/15 05:08:32;;;;;;;5.33;4.07;;;;;;;9.07;64.41;100409.97;5099868;28;20065;-67
2022/10/15 05:11:05;;;;;;;5.30;4.13;;;;;;;9.14;65.16;100416.81;5088538;28;20128;-67
2022/10/15 05:13:32;;;;;;;8.02;4.40;;;;;;;9.14;64.71;100415.97;5103413;28;20039;-67
2022/10/15 05:16:14;;;;;;;4.88;3.63;;;;;;;9.06;64.55;100402.22;5084146;28;20028;-67
2022/10/15 05:18:41;;;;;;;6.22;3.88;;;;;;;9.19;63.78;100423.69;5082812;28;20028;-68
2022/10/15 05:21:07;;;;;;;5.03;4.07;;;;;;;9.18;64.06;100419.38;5098147;28;20032;-68
2022/10/15 05:23:33;;;;;;;5.90;4.45;;;;;;;9.13;64.63;100417.69;5099891;28;20039;-68
2022/10/15 05:26:05;;;;;;;6.78;4.28;;;;;;;9.10;64.60;100424.59;5099206;28;20031;-69
2022/10/15 05:28:31;;;;;;;6.55;4.28;;;;;;;9.07;65.55;100416.88;5084427;28;20040;-68
2022/10/15 05:31:03;;;;;;;6.07;4.53;;;;;;;9.09;64.94;100417.69;5103968;28;20035;-68
2022/10/15 05:33:28;;;;;;;8.98;4.18;;;;;;;9.15;64.85;100420.28;5095637;28;20085;-69
2022/10/15 05:35:54;;;;;;;7.18;4.57;;;;;;;9.10;64.70;100415.13;5103916;28;20035;-68
2022/10/15 05:38:19;;;;;;;8.68;4.30;;;;;;;9.24;64.06;100427.13;5096571;28;20197;-67
2022/10/15 05:40:48;;;;;;;6.78;4.28;;;;;;;9.21;63.63;100424.56;5086228;28;20043;-68
2022/10/15 05:43:14;;;;;;;7.93;4.63;;;;;;;9.24;63.40;100429.72;5103581;28;20051;-69
2022/10/15 05:45:40;;;;;;;7.35;3.70;;;;;;;9.21;63.70;100430.59;5085118;28;20112;-68
2022/10/15 05:48:06;;;;;;;5.80;4.07;;;;;;;9.18;63.59;100432.31;5083857;28;20028;-68
2022/10/15 05:50:32;;;;;;;6.57;4.30;;;;;;;9.10;64.01;100429.75;5092430;28;20047;-66
2022/10/15 05:52:57;;;;;;;8.85;4.03;;;;;;;9.18;63.60;100434.91;5097188;28;20340;-66
2022/10/15 05:55:23;;;;;;;7.22;4.38;;;;;;;9.08;63.84;100432.34;5083441;28;20024;-66
2022/10/15 05:57:49;;;;;;;8.05;4.63;;;;;;;9.15;62.39;100439.22;5103057;28;20188;-67
2022/10/15 06:00:15;;;;;;;12.93;4.82;;;;;;;9.20;62.70;100440.94;5088854;28;20040;-67
2022/10/15 06:02:40;;;;;;;13.50;4.38;;;;;;;9.22;63.34;100441.78;5093631;28;20091;-66
2022/10/15 06:05:06;;;;;;;9.20;4.82;;;;;;;9.21;63.46;100434.91;5098341;28;20036;-67
2022/10/15 06:07:32;;;;;;;12.57;5.07;;;;;;;9.31;63.71;100441.75;5083664;28;20035;-67
2022/10/15 06:09:58;;;;;;;6.90;4.65;;;;;;;9.32;63.56;100439.16;5103623;28;20032;-67
2022/10/15 06:12:23;;;;;;;9.82;4.70;;;;;;;9.31;62.54;100434.00;5087235;28;20024;-66
2022/10/15 06:14:49;;;;;;;9.57;4.80;;;;;;;9.36;63.15;100439.16;5094684;28;20069;-66
2022/10/15 06:17:14;;;;;;;9.40;5.03;;;;;;;9.43;62.40;100448.59;5097106;28;20025;-66
2022/10/15 06:19:40;;;;;;;11.90;4.68;;;;;;;9.47;63.34;100445.97;5084884;28;20044;-67
2022/10/15 06:22:06;;;;;;;12.35;5.20;;;;;;;9.46;62.91;100448.56;5101874;28;20069;-67
2022/10/15 06:24:32;;;;;;;6.78;4.47;;;;;;;9.38;62.75;100451.22;5100183;28;20332;-67
2022/10/15 06:26:58;;;;;;;9.02;4.60;;;;;;;9.32;62.30;100430.56;5091253;28;20036;-66
2022/10/15 06:29:24;;;;;;;5.57;3.97;;;;;;;9.43;62.51;100444.28;5091073;28;20031;-66
2022/10/15 06:31:50;;;;;;;7.35;4.30;;;;;;;9.28;61.97;100449.53;5100434;28;20050;-66
2022/10/15 06:34:15;;;;;;;9.43;4.00;;;;;;;9.43;62.23;100446.00;5098566;28;20044;-66
2022/10/15 06:36:41;;;;;;;4.15;3.25;;;;;;;9.53;62.14;100439.06;5084672;28;20028;-67
2022/10/15 06:39:07;;;;;;;6.80;3.30;;;;;;;9.61;62.11;100451.09;5100735;28;20031;-67
2022/10/15 06:41:32;;;;;;;6.35;3.47;;;;;;;9.27;60.04;100409.03;5108885;28;20019;-66
2022/10/15 06:43:58;;;;;;;8.00;3.53;;;;;;;9.52;61.20;100443.41;5093978;28;20327;-67
2022/10/15 06:46:24;;;;;;;6.85;4.07;;;;;;;9.60;61.02;100449.38;5107034;28;20028;-67
2022/10/15 06:48:50;;;;;;;8.55;3.72;;;;;;;9.67;61.32;100452.78;5087518;28;20059;-67
2022/10/15 06:51:16;;;;;;;7.38;3.40;;;;;;;9.72;61.02;100457.94;5086697;28;20025;-67
2022/10/15 06:53:42;;;;;;;7.57;3.35;;;;;;;9.78;60.91;100460.50;5108999;28;20020;-68
2022/10/15 06:56:08;;;;;;;6.68;3.72;;;;;;;9.78;60.19;100458.75;5091731;28;20024;-67
2022/10/15 06:58:34;;;;;;;7.35;4.13;;;;;;;9.68;60.89;100457.09;5106243;28;20027;-66
2022/10/15 07:01:01;;;;;;;7.95;4.55;;;;;;;9.67;61.59;100452.78;5107218;28;20035;-66
2022/10/15 07:03:28;;;;;;;8.02;4.43;;;;;;;9.78;61.56;100450.16;5092912;28;20024;-66
2022/10/15 07:05:54;;;;;;;8.43;4.65;;;;;;;9.80;61.39;100462.19;5104876;28;20031;-66
2022/10/15 07:08:19;;;;;;;8.98;4.82;;;;;;;9.82;60.77;100457.88;5090381;28;20032;-66
2022/10/15 07:10:46;;;;;;;7.53;4.90;;;;;;;9.87;61.41;100459.59;5088475;28;20304;-67
2022/10/15 07:13:11;;;;;;;9.00;4.93;;;;;;;9.89;62.24;100463.00;5106739;28;20358;-68
2022/10/15 07:15:37;;;;;;;9.07;5.35;;;;;;;10.01;61.84;100475.88;5089157;28;20024;-65
2022/10/15 07:18:03;;;;;;;11.05;5.55;;;;;;;9.95;61.76;100461.25;5086107;28;20036;-66
2022/10/15 07:20:29;;;;;;;7.78;5.03;;;;;;;10.00;61.43;100475.03;5092478;28;20024;-66
2022/10/15 07:22:57;;;;;;;9.65;4.95;;;;;;;9.94;62.25;100472.47;5101262;28;20087;-67
2022/10/15 07:25:24;;;;;;;6.95;4.97;;;;;;;9.99;62.15;100469.84;5106591;28;20104;-66
2022/10/15 07:27:49;;;;;;;10.70;5.07;;;;;;;10.08;61.17;100469.78;5087101;28;20028;-66
2022/10/15 07:30:15;;;;;;;9.32;4.15;;;;;;;10.14;60.54;100474.06;5100170;28;20024;-66
2022/10/15 07:32:42;;;;;;;10.27;4.80;;;;;;;10.16;60.15;100478.38;5105873;28;20087;-66
2022/10/15 07:35:08;;;;;;;6.55;4.18;;;;;;;10.23;60.33;100480.91;5101203;28;20048;-66
2022/10/15 07:37:34;;;;;;;11.50;4.53;;;;;;;10.28;60.37;100481.75;5101077;28;20036;-66
2022/10/15 07:40:00;;;;;;;7.25;4.38;;;;;;;10.30;59.98;100485.16;5086081;28;20116;-66
2022/10/15 07:42:26;;;;;;;7.40;4.63;;;;;;;10.17;59.28;100468.88;5101341;28;20024;-65
2022/10/15 07:44:52;;;;;;;10.25;4.03;;;;;;;10.36;60.02;100492.91;5095162;28;20055;-66
2022/10/15 07:47:17;;;;;;;6.68;4.05;;;;;;;10.22;58.84;100482.66;5088451;28;20024;-67
2022/10/15 07:49:43;;;;;;;11.73;4.95;;;;;;;10.36;59.12;100486.03;5085881;28;20036;-67
2022/10/15 07:52:10;;;;;;;7.68;4.60;;;;;;;10.17;58.59;100466.28;5085742;28;20070;-67
2022/10/15 07:54:36;;;;;;;11.50;4.95;;;;;;;10.31;58.85;100492.06;5102569;28;20024;-67
2022/10/15 07:57:02;;;;;;;9.85;4.07;;;;;;;10.41;59.52;100490.31;5093513;28;20078;-67
2022/10/15 07:59:27;;;;;;;8.50;4.10;;;;;;;10.44;59.20;100491.13;5092595;28;20317;-67
2022/10/15 08:01:53;;;;;;;9.98;4.45;;;;;;;10.39;58.95;100495.50;5102321;28;20031;-66
2022/10/15 08:04:19;;;;;;;14.02;5.05;;;;;;;10.26;58.15;100486.06;5085379;28;20070;-67
2022/10/15 08:06:45;;;;;;;5.97;4.30;;;;;;;10.36;58.58;100493.78;5092405;28;20297;-67
2022/10/15 08:09:11;;;;;;;12.60;4.82;;;;;;;10.43;58.07;100493.72;5098603;28;20031;-67
2022/10/15 08:11:37;;;;;;;10.07;4.25;;;;;;;10.49;58.65;100497.16;5096799;28;20039;-67
2022/10/15 08:14:03;;;;;;;9.35;4.60;;;;;;;10.52;59.80;100489.34;5089157;28;20130;-66
2022/10/15 08:16:29;;;;;;;8.40;4.20;;;;;;;10.52;58.76;100489.34;5105331;28;20297;-66
2022/10/15 08:18:54;;;;;;;8.77;4.53;;;;;;;10.55;58.50;100496.25;5085966;28;20016;-66
2022/10/15 08:21:20;;;;;;;12.55;4.70;;;;;;;10.48;58.05;100486.81;5099027;28;20304;-68
2022/10/15 08:23:46;;;;;;;8.65;4.30;;;;;;;10.53;57.61;100498.84;5094910;28;20317;-65
2022/10/15 08:26:12;;;;;;;10.32;4.60;;;;;;;10.61;57.91;100498.75;5096118;28;20028;-67
2022/10/15 08:28:37;;;;;;;7.90;4.50;;;;;;;10.63;57.66;100493.56;5094737;28;20038;-67
2022/10/15 08:31:04;;;;;;;10.25;5.40;;;;;;;10.68;57.32;100492.66;5083964;28;20056;-67
2022/10/15 08:33:31;;;;;;;6.22;4.35;;;;;;;10.72;57.48;100498.69;5093508;28;20044;-66
2022/10/15 08:35:56;;;;;;;9.52;5.00;;;;;;;10.72;58.73;100498.69;5095329;28;20024;-66
2022/10/15 08:38:22;;;;;;;11.30;5.00;;;;;;;10.73;57.68;100499.53;5094197;28;20305;-67
2022/10/15 08:40:50;;;;;;;7.30;4.80;;;;;;;10.73;56.99;100497.81;5094324;28;20032;-67
2022/10/15 08:43:24;;;;;;;15.23;5.40;;;;;;;10.76;57.09;100513.34;5094683;28;20028;-67
2022/10/15 08:45:55;;;;;;;14.77;5.35;;;;;;;10.75;57.16;100506.44;5093275;28;20087;-67
2022/10/15 08:48:35;;;;;;;11.63;5.18;;;;;;;10.71;57.25;100497.81;5087631;28;20063;-66
2022/10/15 08:51:08;;;;;;;11.38;5.25;;;;;;;10.80;57.00;100516.75;5084485;28;20040;-67
2022/10/15 08:53:40;;;;;;;13.43;5.38;;;;;;;10.54;56.80;100494.50;5092047;28;20059;-67
2022/10/15 08:56:12;;;;;;;;;;;;;;;10.58;56.48;100510.91;5100767;28;20024;-68
2022/10/15 08:59:04;;;;;;;15.43;5.05;;;;;;;10.65;56.92;100512.56;5091280;28;19913;-67
2022/10/15 09:01:36;;;;;;;9.88;5.40;;;;;;;10.70;56.80;100510.78;5086440;28;20031;-67
2022/10/15 09:04:22;;;;;;;10.30;5.35;;;;;;;10.71;57.27;100504.72;5094302;28;20040;-68
2022/10/15 09:06:54;;;;;;;14.02;5.47;;;;;;;10.71;57.38;100496.97;5093015;28;20328;-67
2022/10/15 09:09:49;;;;;;;17.02;5.68;;;;;;;10.71;56.51;100515.09;5091985;28;20093;-67
2022/10/15 09:12:40;;;;;;;15.32;5.78;;;;;;;10.72;57.24;100506.47;5086868;28;20032;-67
2022/10/15 09:15:12;;;;;;;11.70;6.20;;;;;;;10.74;58.09;100498.66;5083923;28;20091;-67
2022/10/15 09:17:40;;;;;;;19.20;8.48;;;;;;;10.73;57.64;100510.78;5092412;28;20047;-66
2022/10/15 09:20:32;;;;;;;17.73;8.45;;;;;;;10.64;57.71;100496.13;5091216;28;20328;-66
2022/10/15 09:22:58;;;;;;;17.45;9.27;;;;;;;10.77;57.69;100515.03;5095747;28;20083;-67
2022/10/15 09:25:27;;;;;;;15.30;9.57;;;;;;;10.75;57.68;100509.03;5094820;28;20036;-67
2022/10/15 09:27:55;;;;;;;19.25;9.55;;;;;;;10.82;57.81;100504.66;5092442;28;20016;-67
2022/10/15 09:30:41;;;;;;;16.02;10.65;;;;;;;10.84;57.24;100503.72;5091743;28;20044;-68
2022/10/15 09:33:32;;;;;;;20.85;10.15;;;;;;;10.85;57.86;100510.66;5096870;28;20344;-68
2022/10/15 09:36:00;;;;;;;17.50;9.65;;;;;;;10.88;56.86;100504.56;5083331;28;20385;-67
2022/10/15 09:38:41;;;;;;;23.05;10.20;;;;;;;10.97;57.02;100508.81;5088264;28;20024;-67
2022/10/15 09:41:19;;;;;;;20.38;10.23;;;;;;;10.92;56.92;100510.59;5099269;28;20046;-67
2022/10/15 09:43:49;;;;;;;19.20;9.30;;;;;;;11.01;56.97;100510.50;5088824;28;20028;-67
2022/10/15 09:46:15;;;;;;;16.30;7.40;;;;;;;10.84;55.85;100514.09;5101738;28;20273;-67
2022/10/15 09:49:07;;;;;;;19.60;8.63;;;;;;;10.71;56.42;100510.75;5088958;28;20036;-66
2022/10/15 09:51:44;;;;;;;10.98;6.72;;;;;;;10.78;56.27;100502.94;5083445;28;20069;-67
2022/10/15 09:54:17;;;;;;;16.92;6.30;;;;;;;10.83;56.01;100506.34;5095374;28;20276;-67
2022/10/15 09:56:51;;;;;;;11.48;5.38;;;;;;;10.89;55.87;100511.50;5103447;28;20185;-67
2022/10/15 09:59:19;;;;;;;10.15;5.07;;;;;;;10.93;55.52;100510.59;5092567;28;20024;-67
2022/10/15 10:02:01;;;;;;;12.32;5.00;;;;;;;11.02;55.92;100509.63;5091970;28;20024;-67
2022/10/15 10:04:30;;;;;;;11.75;4.40;;;;;;;10.95;55.78;100502.78;5093656;28;20186;-67
2022/10/15 10:07:01;;;;;;;11.13;4.90;;;;;;;10.97;55.85;100503.63;5088543;28;20024;-68
2022/10/15 10:09:53;;;;;;;10.80;4.30;;;;;;;10.77;55.75;100488.28;5092933;28;20032;-67
2022/10/15 10:12:22;;;;;;;9.48;4.30;;;;;;;10.87;55.04;100506.31;5085260;28;20059;-67
2022/10/15 10:14:59;;;;;;;9.20;4.30;;;;;;;10.87;55.13;100503.72;5091801;28;20043;-67
2022/10/15 10:17:27;;;;;;;10.68;4.50;;;;;;;10.72;55.60;100480.56;5097668;28;20060;-67
2022/10/15 10:20:08;;;;;;;9.55;4.07;;;;;;;10.91;55.64;100493.34;5085639;28;20043;-66
2022/10/15 10:22:45;;;;;;;13.27;5.32;;;;;;;10.95;56.08;100488.09;5090625;28;20028;-67
2022/10/15 10:25:31;;;;;;;12.27;4.32;;;;;;;10.81;55.44;100458.88;5093857;28;20126;-67
2022/10/15 10:28:12;;;;;;;9.73;4.43;;;;;;;11.09;55.58;100497.44;5084725;28;20039;-67
2022/10/15 10:30:59;;;;;;;13.60;4.22;;;;;;;10.85;54.47;100489.91;5082723;28;20100;-66
2022/10/15 10:33:33;;;;;;;7.50;4.18;;;;;;;10.91;55.44;100508.88;5096493;28;20020;-67
2022/10/15 10:36:00;;;;;;;12.65;4.40;;;;;;;11.00;55.18;100506.19;5092718;28;20032;-67
2022/10/15 10:38:33;;;;;;;10.23;4.10;;;;;;;10.94;54.98;100503.66;5088503;28;20111;-67
2022/10/15 10:41:06;;;;;;;6.88;3.95;;;;;;;11.10;55.33;100494.88;5101400;28;20040;-67
2022/10/15 10:43:34;;;;;;;11.35;4.05;;;;;;;11.11;55.00;100495.72;5082753;28;20127;-66
2022/10/15 10:46:17;;;;;;;8.60;3.55;;;;;;;11.18;55.11;100500.81;5101639;28;20031;-67
2022/10/15 10:48:46;;;;;;;7.95;3.97;;;;;;;11.18;54.90;100499.97;5102795;28;20031;-68
2022/10/15 10:51:15;;;;;;;11.45;4.40;;;;;;;11.16;55.66;100476.66;5102994;28;20024;-68
2022/10/15 10:54:13;;;;;;;8.80;4.35;;;;;;;11.19;54.65;100497.34;5085202;28;20279;-67
2022/10/15 10:56:43;;;;;;;7.22;3.80;;;;;;;11.24;55.45;100492.09;5072137;28;20028;-68
2022/10/15 10:59:30;;;;;;;9.05;4.88;;;;;;;11.32;55.36;100490.28;5098724;28;20050;-67
2022/10/15 11:01:56;;;;;;;12.40;4.90;;;;;;;11.28;55.55;100490.34;5083864;28;20085;-67
2022/10/15 11:04:22;;;;;;;11.52;4.60;;;;;;;11.35;55.68;100495.44;5103125;28;20024;-67
2022/10/15 11:06:53;;;;;;;11.65;5.07;;;;;;;11.42;55.26;100490.19;5085694;28;20532;-67
2022/10/15 11:09:46;;;;;;;10.93;5.03;;;;;;;11.29;55.93;100487.75;5095440;28;20062;-67
2022/10/15 11:12:53;;;;;;;15.00;4.90;;;;;;;11.38;55.77;100489.38;5091209;28;20028;-68
2022/10/15 11:15:29;;;;;;;9.75;4.93;;;;;;;11.39;55.45;100494.53;5094179;28;20335;-67
2022/10/15 11:18:32;;;;;;;11.82;5.20;;;;;;;11.30;55.27;100494.66;5093478;28;20130;-68
2022/10/15 11:21:19;;;;;;;8.63;4.13;;;;;;;11.43;55.63;100495.38;5091890;28;20028;-67
2022/10/15 11:24:02;;;;;;;10.20;5.07;;;;;;;11.28;55.81;100492.94;5096629;28;20059;-67
2022/10/15 11:26:58;;;;;;;10.32;4.82;;;;;;;11.28;56.71;100496.38;5084646;28;20212;-66
2022/10/15 11:29:27;;;;;;;11.73;5.22;;;;;;;11.38;56.02;100484.19;5089941;28;20040;-67
2022/10/15 11:31:52;;;;;;;16.88;6.15;;;;;;;11.27;56.26;100483.44;5105914;28;20198;-67
2022/10/15 11:34:27;;;;;;;12.88;5.78;;;;;;;11.31;56.74;100482.53;5101305;28;20047;-67
2022/10/15 11:37:28;;;;;;;9.43;5.63;;;;;;;11.21;57.42;100490.41;5088783;28;20100;-67
2022/10/15 11:40:18;;;;;;;14.93;5.32;;;;;;;11.07;56.62;100470.69;5084547;28;20059;-68
2022/10/15 11:43:43;;;;;;;10.20;5.03;;;;;;;11.20;56.77;100472.28;5101338;28;20027;-67
2022/10/15 11:46:44;;;;;;;11.88;5.38;;;;;;;11.33;56.01;100481.66;5023541;28;20034;-67